createdAt,value
2019-03-30T00:01:26.760Z,20.47
2019-03-30T00:03:55.208Z,13.93
2019-03-30T00:06:23.650Z,12.20
2019-03-30T00:08:52.136Z,12.70
2019-03-30T00:11:20.540Z,12.03
2019-03-30T00:13:48.960Z,11.73
2019-03-30T00:16:17.415Z,16.80
2019-03-30T00:18:45.528Z,14.03
2019-03-30T00:21:13.936Z,16.43
2019-03-30T00:23:42.372Z,14.47
2019-03-30T00:26:10.796Z,12.03
2019-03-30T00:28:39.203Z,11.30
2019-03-30T00:31:07.616Z,11.63
2019-03-30T00:33:36.040Z,13.13
2019-03-30T00:36:04.121Z,10.37
2019-03-30T00:38:32.196Z,13.10
2019-03-30T00:41:00.609Z,15.17
2019-03-30T00:43:29.056Z,12.53
2019-03-30T00:45:57.509Z,11.50
2019-03-30T00:48:25.913Z,12.77
2019-03-30T00:50:54.325Z,12.27
2019-03-30T00:53:22.736Z,8.23
2019-03-30T00:55:51.163Z,15.53
2019-03-30T00:58:19.573Z,12.50
2019-03-30T01:00:47.985Z,10.40
2019-03-30T01:03:16.372Z,9.30
2019-03-30T01:05:44.788Z,8.97
2019-03-30T01:08:13.283Z,12.40
2019-03-30T01:10:41.798Z,11.37
2019-03-30T01:13:10.205Z,12.77
2019-03-30T01:15:38.317Z,10.43
2019-03-30T01:18:06.753Z,13.60
2019-03-30T01:20:35.173Z,10.53
2019-03-30T01:23:03.636Z,11.03
2019-03-30T01:25:32.093Z,11.73
2019-03-30T01:28:00.505Z,11.50
2019-03-30T01:30:28.945Z,10.10
2019-03-30T01:32:57.417Z,12.40
2019-03-30T01:35:25.873Z,12.20
2019-03-30T01:37:54.289Z,11.67
2019-03-30T01:40:22.732Z,9.43
2019-03-30T01:42:51.151Z,7.57
2019-03-30T01:45:19.569Z,11.57
2019-03-30T01:47:47.953Z,10.43
2019-03-30T01:50:18.064Z,7.00
2019-03-30T01:52:47.235Z,7.80
2019-03-30T01:55:15.773Z,8.67
2019-03-30T01:57:44.173Z,9.33
2019-03-30T02:00:13.721Z,10.83
2019-03-30T02:02:42.111Z,8.63
2019-03-30T02:05:11.073Z,10.57
2019-03-30T02:07:39.465Z,7.73
2019-03-30T02:10:08.810Z,9.10
2019-03-30T02:12:37.472Z,10.37
2019-03-30T02:15:06.820Z,10.50
2019-03-30T02:17:35.225Z,8.03
2019-03-30T02:20:06.160Z,8.47
2019-03-30T02:22:34.232Z,7.27
2019-03-30T02:25:02.911Z,9.87
2019-03-30T02:27:31.306Z,8.17
2019-03-30T02:29:59.732Z,7.40
2019-03-30T02:32:28.158Z,11.00
2019-03-30T02:34:56.567Z,10.20
2019-03-30T02:37:24.983Z,8.10
2019-03-30T02:39:53.411Z,10.53
2019-03-30T02:42:21.804Z,8.00
2019-03-30T02:44:50.217Z,8.40
2019-03-30T02:47:18.626Z,9.17
2019-03-30T02:49:47.041Z,9.63
2019-03-30T02:52:15.438Z,11.23
2019-03-30T02:54:43.860Z,11.13
2019-03-30T02:57:11.930Z,7.87
2019-03-30T02:59:40.349Z,7.23
2019-03-30T03:02:08.429Z,10.47
2019-03-30T03:04:36.503Z,8.27
2019-03-30T03:07:04.934Z,11.07
2019-03-30T03:09:33.316Z,7.80
2019-03-30T03:12:01.743Z,9.37
2019-03-30T03:14:30.138Z,11.43
2019-03-30T03:16:58.557Z,12.57
2019-03-30T03:19:26.978Z,10.83
2019-03-30T03:21:55.395Z,9.17
2019-03-30T03:24:23.800Z,8.13
2019-03-30T03:26:52.237Z,8.80
2019-03-30T03:29:20.337Z,9.63
2019-03-30T03:31:48.741Z,7.53
2019-03-30T03:34:17.184Z,7.83
2019-03-30T03:36:45.868Z,12.93
2019-03-30T03:39:14.264Z,9.83
2019-03-30T03:41:43.277Z,8.27
2019-03-30T03:44:11.685Z,7.43
2019-03-30T03:46:40.117Z,6.90
2019-03-30T03:49:08.706Z,8.03
2019-03-30T03:51:37.190Z,9.27
2019-03-30T03:54:05.761Z,9.50
2019-03-30T03:56:35.633Z,8.27
2019-03-30T03:59:06.381Z,8.77
2019-03-30T04:01:35.221Z,8.47
2019-03-30T04:04:05.758Z,8.83
2019-03-30T04:06:34.361Z,10.30
2019-03-30T04:09:04.521Z,8.23
2019-03-30T04:11:32.621Z,8.57
2019-03-30T04:14:01.162Z,6.90
2019-03-30T04:16:30.126Z,7.33
2019-03-30T04:18:58.627Z,8.63
2019-03-30T04:21:43.029Z,9.20
2019-03-30T04:23:56.868Z,9.97
2019-03-30T04:26:25.253Z,8.07
2019-03-30T04:28:53.354Z,7.37
2019-03-30T04:31:21.749Z,8.60
2019-03-30T04:33:49.869Z,7.50
2019-03-30T04:36:18.309Z,7.33
2019-03-30T04:38:46.767Z,9.17
2019-03-30T04:41:15.204Z,8.83
2019-03-30T04:43:43.319Z,7.60
2019-03-30T04:46:11.710Z,7.90
2019-03-30T04:48:40.116Z,8.40
2019-03-30T04:51:08.636Z,9.03
2019-03-30T04:53:56.022Z,7.90
2019-03-30T04:56:24.422Z,7.63
2019-03-30T04:58:52.853Z,8.13
2019-03-30T05:01:21.240Z,9.07
2019-03-30T05:03:49.661Z,8.07
2019-03-30T05:06:18.060Z,9.93
2019-03-30T05:08:46.462Z,8.20
2019-03-30T05:11:14.869Z,8.13
2019-03-30T05:13:43.280Z,7.60
2019-03-30T05:16:11.681Z,11.63
2019-03-30T05:18:40.124Z,7.33
2019-03-30T05:21:08.672Z,8.83
2019-03-30T05:23:36.792Z,10.67
2019-03-30T05:26:05.552Z,7.60
2019-03-30T05:28:33.960Z,7.17
2019-03-30T05:31:02.360Z,6.43
2019-03-30T05:33:30.783Z,5.93
2019-03-30T05:35:58.877Z,5.27
2019-03-30T05:38:27.312Z,9.97
2019-03-30T05:40:55.432Z,8.17
2019-03-30T05:43:23.874Z,8.77
2019-03-30T05:45:52.346Z,7.77
2019-03-30T05:48:20.952Z,6.40
2019-03-30T05:50:49.443Z,8.27
2019-03-30T05:53:17.860Z,8.73
2019-03-30T05:55:46.284Z,7.40
2019-03-30T05:58:14.790Z,6.50
2019-03-30T06:00:43.187Z,6.93
2019-03-30T06:03:11.625Z,8.23
2019-03-30T06:05:39.688Z,6.10
2019-03-30T06:08:08.108Z,5.77
2019-03-30T06:10:38.821Z,9.77
2019-03-30T06:13:06.639Z,7.83
2019-03-30T06:15:35.048Z,5.70
2019-03-30T06:18:03.517Z,8.37
2019-03-30T06:20:31.970Z,5.57
2019-03-30T06:23:00.037Z,7.23
2019-03-30T06:25:28.449Z,8.40
2019-03-30T06:27:56.519Z,5.30
2019-03-30T06:30:26.260Z,6.13
2019-03-30T06:32:54.667Z,7.50
2019-03-30T06:35:23.068Z,5.60
2019-03-30T06:37:51.542Z,4.37
2019-03-30T06:40:20.127Z,5.10
2019-03-30T06:42:48.538Z,4.20
2019-03-30T06:45:16.946Z,5.03
2019-03-30T06:47:45.036Z,4.92
2019-03-30T06:50:13.980Z,3.67
2019-03-30T06:52:56.360Z,7.05
2019-03-30T06:55:12.244Z,3.65
2019-03-30T06:57:40.644Z,3.62
2019-03-30T07:00:09.324Z,3.83
2019-03-30T07:02:38.100Z,2.55
2019-03-30T07:05:08.156Z,3.00
2019-03-30T07:07:38.696Z,3.37
2019-03-30T07:10:07.957Z,2.42
2019-03-30T07:12:39.440Z,4.33
2019-03-30T07:15:09.716Z,3.50
2019-03-30T07:17:41.192Z,3.45
2019-03-30T07:20:15.414Z,4.22
2019-03-30T07:22:43.823Z,2.95
2019-03-30T07:25:11.905Z,3.15
2019-03-30T07:27:40.324Z,3.47
2019-03-30T07:30:08.811Z,3.35
2019-03-30T07:32:37.207Z,5.15
2019-03-30T07:35:06.493Z,4.03
2019-03-30T07:37:34.893Z,3.92
2019-03-30T07:40:04.680Z,4.37
2019-03-30T07:42:32.760Z,3.85
2019-03-30T07:45:01.171Z,4.62
2019-03-30T07:47:29.591Z,8.13
2019-03-30T07:49:58.007Z,5.47
2019-03-30T07:52:26.411Z,9.03
2019-03-30T07:54:54.832Z,6.20
2019-03-30T07:57:22.919Z,7.03
2019-03-30T07:59:51.312Z,5.75
2019-03-30T08:02:19.996Z,5.17
2019-03-30T08:04:48.397Z,5.92
2019-03-30T08:07:16.819Z,5.72
2019-03-30T08:09:45.393Z,6.05
2019-03-30T08:12:13.475Z,6.85
2019-03-30T08:14:44.979Z,6.25
2019-03-30T08:17:12.132Z,5.53
2019-03-30T08:19:40.568Z,4.83
2019-03-30T08:22:08.985Z,6.22
2019-03-30T08:24:37.057Z,4.45
2019-03-30T08:27:05.553Z,6.90
2019-03-30T08:29:33.957Z,5.15
2019-03-30T08:32:21.717Z,6.37
2019-03-30T08:34:50.122Z,6.30
2019-03-30T08:37:18.201Z,5.58
2019-03-30T08:39:46.625Z,7.03
2019-03-30T08:42:15.065Z,5.58
2019-03-30T08:44:43.539Z,8.83
2019-03-30T08:47:12.162Z,5.83
2019-03-30T08:49:40.561Z,6.15
2019-03-30T08:52:08.983Z,6.03
2019-03-30T08:54:37.072Z,8.05
2019-03-30T08:57:05.154Z,8.00
2019-03-30T08:59:33.224Z,6.33
2019-03-30T09:02:01.685Z,7.60
2019-03-30T09:04:29.782Z,6.40
2019-03-30T09:06:58.188Z,6.83
2019-03-30T09:09:26.711Z,8.55
2019-03-30T09:11:55.142Z,8.48
2019-03-30T09:14:23.544Z,7.53
2019-03-30T09:16:51.968Z,7.28
2019-03-30T09:19:20.484Z,7.55
2019-03-30T09:21:48.928Z,10.53
2019-03-30T09:24:17.363Z,13.03
2019-03-30T09:26:45.461Z,7.15
2019-03-30T09:29:13.532Z,7.30
2019-03-30T09:31:41.940Z,8.00
2019-03-30T09:34:10.360Z,7.87
2019-03-30T09:36:38.589Z,8.65
2019-03-30T09:39:07.021Z,7.35
2019-03-30T09:41:54.457Z,9.15
2019-03-30T09:44:22.856Z,10.13
2019-03-30T09:46:50.936Z,7.17
2019-03-30T09:49:19.390Z,8.10
2019-03-30T09:51:47.804Z,6.90
2019-03-30T09:54:23.548Z,7.72
2019-03-30T09:56:47.905Z,7.53
2019-03-30T09:59:16.341Z,8.68
2019-03-30T10:01:44.422Z,6.72
2019-03-30T10:04:12.858Z,8.93
2019-03-30T10:06:41.261Z,7.25
2019-03-30T10:09:09.671Z,7.78
2019-03-30T10:11:37.758Z,8.63
2019-03-30T10:14:06.184Z,7.78
2019-03-30T10:16:34.686Z,8.80
2019-03-30T10:19:03.100Z,6.95
2019-03-30T10:21:31.503Z,8.58
2019-03-30T10:23:59.926Z,10.63
2019-03-30T10:26:28.333Z,10.85
2019-03-30T10:28:56.744Z,10.48
2019-03-30T10:31:25.178Z,9.18
2019-03-30T10:33:53.655Z,9.58
2019-03-30T10:36:22.056Z,10.88
2019-03-30T10:38:50.473Z,11.35
2019-03-30T10:41:18.886Z,8.83
2019-03-30T10:43:47.253Z,10.23
2019-03-30T10:46:15.689Z,11.05
2019-03-30T10:48:43.786Z,12.63
2019-03-30T10:51:12.262Z,10.18
2019-03-30T10:53:40.685Z,9.10
2019-03-30T10:56:09.095Z,8.95
2019-03-30T10:58:37.535Z,11.25
2019-03-30T11:01:05.937Z,10.40
2019-03-30T11:03:34.353Z,11.88
2019-03-30T11:06:02.760Z,10.88
2019-03-30T11:08:31.174Z,9.53
2019-03-30T11:10:59.588Z,10.03
2019-03-30T11:13:28.036Z,10.25
2019-03-30T11:15:56.445Z,11.35
2019-03-30T11:18:24.905Z,11.03
2019-03-30T11:20:53.377Z,12.63
2019-03-30T11:23:21.481Z,13.75
2019-03-30T11:25:49.599Z,11.83
2019-03-30T11:28:18.089Z,9.98
2019-03-30T11:30:46.497Z,11.22
2019-03-30T11:33:14.900Z,10.05
2019-03-30T11:35:42.982Z,10.40
2019-03-30T11:38:11.404Z,10.95
2019-03-30T11:40:40.013Z,9.23
2019-03-30T11:43:08.460Z,12.28
2019-03-30T11:45:36.548Z,10.63
2019-03-30T11:48:05.169Z,11.80
2019-03-30T11:50:33.596Z,11.75
2019-03-30T11:53:01.990Z,11.55
2019-03-30T11:55:30.399Z,11.55
2019-03-30T11:58:12.013Z,11.90
2019-03-30T12:00:40.473Z,12.47
2019-03-30T12:03:09.000Z,14.98
2019-03-30T12:05:37.433Z,10.80
2019-03-30T12:08:05.874Z,12.58
2019-03-30T12:10:34.312Z,10.90
2019-03-30T12:13:02.723Z,8.93
2019-03-30T12:15:31.170Z,11.08
2019-03-30T12:17:59.560Z,11.83
2019-03-30T12:20:27.653Z,7.83
2019-03-30T12:22:56.073Z,10.30
2019-03-30T12:25:34.987Z,12.00
2019-03-30T12:27:54.617Z,10.05
2019-03-30T12:30:23.033Z,9.90
2019-03-30T12:32:51.449Z,9.00
2019-03-30T12:35:20.024Z,10.95
2019-03-30T12:37:48.427Z,11.18
2019-03-30T12:40:16.858Z,10.93
2019-03-30T12:42:44.961Z,10.13
2019-03-30T12:45:14.113Z,14.35
2019-03-30T12:47:42.519Z,11.90
2019-03-30T12:50:10.638Z,10.75
2019-03-30T12:52:39.200Z,9.63
2019-03-30T12:55:07.861Z,11.78
2019-03-30T12:57:36.268Z,12.30
2019-03-30T13:00:09.344Z,10.03
2019-03-30T13:02:37.776Z,10.55
2019-03-30T13:05:07.581Z,12.05
2019-03-30T13:07:35.922Z,13.58
2019-03-30T13:10:06.733Z,11.18
2019-03-30T13:12:34.829Z,13.22
2019-03-30T13:15:03.717Z,12.15
2019-03-30T13:17:32.117Z,13.10
2019-03-30T13:20:00.557Z,14.33
2019-03-30T13:22:28.696Z,13.45
2019-03-30T13:24:57.100Z,11.65
2019-03-30T13:27:25.509Z,9.20
2019-03-30T13:29:53.741Z,14.60
2019-03-30T13:32:22.161Z,12.10
2019-03-30T13:34:50.562Z,12.28
2019-03-30T13:37:20.008Z,15.85
2019-03-30T13:39:48.498Z,13.93
2019-03-30T13:42:16.582Z,14.20
2019-03-30T13:44:44.981Z,13.20
2019-03-30T13:47:13.412Z,11.70
2019-03-30T13:49:41.820Z,15.28
2019-03-30T13:52:09.927Z,13.65
2019-03-30T13:54:38.893Z,12.70
2019-03-30T13:57:07.226Z,12.82
2019-03-30T13:59:35.692Z,12.25
2019-03-30T14:02:04.377Z,15.08
2019-03-30T14:04:32.795Z,13.75
2019-03-30T14:07:01.224Z,14.95
2019-03-30T14:09:29.639Z,14.13
2019-03-30T14:11:57.739Z,12.65
2019-03-30T14:14:26.149Z,17.07
2019-03-30T14:16:54.569Z,12.45
2019-03-30T14:19:22.969Z,14.35
2019-03-30T14:21:51.437Z,11.90
2019-03-30T14:24:19.906Z,13.28
2019-03-30T14:26:48.071Z,11.55
2019-03-30T14:29:16.208Z,13.93
2019-03-30T14:31:44.311Z,14.75
2019-03-30T14:34:12.747Z,14.07
2019-03-30T14:36:40.820Z,14.23
2019-03-30T14:39:09.268Z,13.80
2019-03-30T14:41:37.394Z,14.53
2019-03-30T14:44:05.936Z,12.53
2019-03-30T14:46:34.359Z,11.28
2019-03-30T14:49:02.432Z,13.30
2019-03-30T14:51:30.872Z,13.55
2019-03-30T14:53:59.319Z,13.43
2019-03-30T14:56:27.720Z,12.50
2019-03-30T14:59:09.107Z,13.20
2019-03-30T15:01:27.470Z,10.88
2019-03-30T15:03:56.036Z,11.40
2019-03-30T15:06:24.438Z,11.05
2019-03-30T15:08:52.560Z,11.97
2019-03-30T15:11:20.980Z,13.08
2019-03-30T15:13:49.396Z,11.38
2019-03-30T15:16:17.957Z,9.83
2019-03-30T15:18:46.372Z,14.45
2019-03-30T15:21:14.805Z,10.78
2019-03-30T15:23:42.888Z,12.35
2019-03-30T15:26:11.323Z,13.43
2019-03-30T15:28:42.643Z,13.43
2019-03-30T15:31:09.568Z,12.35
2019-03-30T15:33:37.998Z,12.18
2019-03-30T15:36:06.401Z,13.75
2019-03-30T15:38:34.813Z,10.78
2019-03-30T15:41:03.240Z,14.23
2019-03-30T15:43:37.951Z,10.72
2019-03-30T15:46:01.997Z,12.00
2019-03-30T15:48:30.421Z,11.40
2019-03-30T15:50:59.104Z,12.28
2019-03-30T15:53:27.596Z,10.43
2019-03-30T15:55:56.020Z,11.10
2019-03-30T15:58:24.445Z,11.25
2019-03-30T16:00:52.882Z,8.80
2019-03-30T16:03:21.361Z,13.60
2019-03-30T16:05:49.832Z,11.08
2019-03-30T16:08:17.921Z,11.30
2019-03-30T16:10:45.993Z,11.88
2019-03-30T16:13:14.849Z,9.98
2019-03-30T16:15:44.647Z,11.68
2019-03-30T16:18:13.409Z,11.60
2019-03-30T16:20:41.899Z,17.15
2019-03-30T16:23:10.488Z,12.93
2019-03-30T16:25:39.060Z,9.90
2019-03-30T16:28:07.236Z,12.80
2019-03-30T16:30:35.429Z,11.40
2019-03-30T16:33:03.583Z,11.63
2019-03-30T16:35:32.031Z,14.93
2019-03-30T16:38:00.445Z,13.20
2019-03-30T16:40:28.889Z,11.88
2019-03-30T16:42:57.311Z,13.60
2019-03-30T16:45:25.716Z,10.98
2019-03-30T16:47:54.120Z,12.35
2019-03-30T16:50:41.908Z,11.88
2019-03-30T16:53:09.985Z,13.48
2019-03-30T16:55:38.414Z,15.60
2019-03-30T16:58:06.873Z,16.40
2019-03-30T17:00:35.291Z,16.23
2019-03-30T17:03:03.645Z,13.70
2019-03-30T17:05:32.050Z,12.82
2019-03-30T17:08:00.486Z,19.12
2019-03-30T17:10:28.929Z,14.13
2019-03-30T17:12:57.417Z,13.18
2019-03-30T17:15:25.842Z,14.53
2019-03-30T17:17:54.395Z,11.33
2019-03-30T17:20:22.803Z,13.90
2019-03-30T17:22:51.239Z,14.93
2019-03-30T17:25:19.711Z,18.82
2019-03-30T17:27:57.963Z,12.78
2019-03-30T17:30:18.362Z,15.50
2019-03-30T17:32:46.865Z,14.15
2019-03-30T17:35:15.359Z,16.40
2019-03-30T17:37:43.877Z,14.65
2019-03-30T17:40:12.644Z,14.80
2019-03-30T17:42:41.067Z,13.22
2019-03-30T17:45:10.314Z,13.98
2019-03-30T17:47:38.737Z,12.60
2019-03-30T17:50:07.800Z,14.15
2019-03-30T17:52:36.249Z,14.50
2019-03-30T17:55:05.787Z,15.83
2019-03-30T17:57:34.208Z,15.53
2019-03-30T18:00:02.840Z,13.68
2019-03-30T18:02:31.009Z,14.58
2019-03-30T18:04:59.712Z,14.98
2019-03-30T18:07:28.162Z,16.52
2019-03-30T18:09:56.614Z,17.02
2019-03-30T18:12:25.049Z,13.22
2019-03-30T18:14:53.503Z,13.60
2019-03-30T18:17:21.586Z,14.13
2019-03-30T18:19:50.526Z,13.53
2019-03-30T18:22:19.697Z,12.43
2019-03-30T18:24:47.967Z,13.55
2019-03-30T18:27:16.827Z,15.63
2019-03-30T18:29:45.324Z,12.85
2019-03-30T18:32:13.725Z,12.30
2019-03-30T18:34:42.813Z,13.15
2019-03-30T18:37:11.747Z,14.87
2019-03-30T18:39:40.199Z,12.15
2019-03-30T18:42:08.629Z,14.15
2019-03-30T18:44:37.941Z,11.93
2019-03-30T18:47:06.377Z,12.95
2019-03-30T18:49:34.883Z,11.25
2019-03-30T18:52:04.200Z,11.12
2019-03-30T18:54:33.604Z,15.10
2019-03-30T18:57:02.231Z,11.60
2019-03-30T18:59:30.664Z,11.65
2019-03-30T19:01:59.137Z,13.30
2019-03-30T19:04:27.627Z,16.15
2019-03-30T19:06:56.105Z,15.28
2019-03-30T19:09:24.558Z,13.70
2019-03-30T19:11:53.001Z,15.00
2019-03-30T19:14:21.420Z,14.25
2019-03-30T19:16:50.084Z,14.47
2019-03-30T19:19:18.513Z,16.77
2019-03-30T19:21:46.672Z,12.82
2019-03-30T19:24:14.847Z,17.15
2019-03-30T19:26:43.292Z,17.02
2019-03-30T19:29:11.689Z,12.13
2019-03-30T19:31:40.142Z,12.50
2019-03-30T19:34:08.578Z,13.08
2019-03-30T19:36:36.752Z,14.07
2019-03-30T19:39:08.326Z,21.10
2019-03-30T19:41:36.854Z,13.98
2019-03-30T19:44:04.973Z,12.85
2019-03-30T19:46:33.464Z,15.23
2019-03-30T19:49:01.899Z,14.23
2019-03-30T19:51:30.351Z,12.35
2019-03-30T19:54:00.083Z,12.80
2019-03-30T19:56:28.671Z,14.40
2019-03-30T19:59:10.128Z,11.35
2019-03-30T20:01:27.247Z,15.43
2019-03-30T20:03:55.640Z,14.13
2019-03-30T20:06:24.118Z,13.30
2019-03-30T20:08:52.197Z,13.20
2019-03-30T20:11:20.335Z,15.10
2019-03-30T20:13:48.768Z,12.58
2019-03-30T20:16:17.385Z,15.75
2019-03-30T20:18:45.829Z,14.60
2019-03-30T20:21:14.306Z,13.75
2019-03-30T20:23:42.400Z,13.85
2019-03-30T20:26:30.206Z,17.73
2019-03-30T20:28:59.784Z,16.97
2019-03-30T20:31:28.266Z,12.23
2019-03-30T20:33:56.672Z,15.48
2019-03-30T20:36:24.792Z,15.18
2019-03-30T20:38:53.249Z,13.08
2019-03-30T20:41:21.677Z,11.20
2019-03-30T20:43:50.080Z,12.10
2019-03-30T20:46:18.560Z,12.80
2019-03-30T20:48:47.070Z,11.97
2019-03-30T20:51:15.468Z,11.75
2019-03-30T20:53:43.565Z,13.65
2019-03-30T20:56:12.047Z,9.70
2019-03-30T20:58:40.133Z,9.73
2019-03-30T21:01:08.616Z,7.45
2019-03-30T21:03:37.031Z,11.18
2019-03-30T21:06:05.101Z,9.58
2019-03-30T21:08:33.222Z,10.50
2019-03-30T21:11:01.623Z,12.85
2019-03-30T21:13:30.035Z,13.32
2019-03-30T21:15:58.099Z,11.00
2019-03-30T21:18:26.543Z,10.82
2019-03-30T21:20:54.996Z,9.30
2019-03-30T21:23:23.128Z,6.70
2019-03-30T21:25:51.530Z,9.35
2019-03-30T21:28:19.954Z,8.98
2019-03-30T21:30:48.469Z,9.40
2019-03-30T21:33:16.888Z,11.60
2019-03-30T21:35:45.332Z,11.90
2019-03-30T21:38:13.729Z,8.55
2019-03-30T21:40:42.157Z,6.40
2019-03-30T21:43:10.657Z,8.60
2019-03-30T21:45:38.747Z,8.70
2019-03-30T21:48:07.143Z,6.83
2019-03-30T21:50:35.306Z,5.80
2019-03-30T21:53:03.379Z,7.17
2019-03-30T21:55:31.816Z,8.30
2019-03-30T21:58:00.221Z,9.50
2019-03-30T22:00:35.952Z,8.48
2019-03-30T22:03:05.114Z,7.47
2019-03-30T22:05:34.825Z,8.03
2019-03-30T22:08:04.905Z,5.75
2019-03-30T22:10:33.360Z,10.90
2019-03-30T22:13:01.849Z,11.12
2019-03-30T22:15:30.420Z,8.10
2019-03-30T22:17:58.513Z,6.28
2019-03-30T22:20:26.633Z,6.90
2019-03-30T22:22:55.048Z,7.35
2019-03-30T22:25:23.140Z,7.70
2019-03-30T22:27:51.302Z,9.35
2019-03-30T22:30:25.023Z,8.60
2019-03-30T22:32:49.549Z,6.45
2019-03-30T22:35:17.964Z,9.27
2019-03-30T22:37:46.418Z,8.68
2019-03-30T22:40:15.090Z,7.23
2019-03-30T22:42:43.497Z,9.50
2019-03-30T22:45:12.244Z,9.40
2019-03-30T22:47:40.644Z,7.20
2019-03-30T22:50:09.384Z,13.60
2019-03-30T22:52:37.825Z,8.97
2019-03-30T22:55:07.602Z,10.43
2019-03-30T22:57:35.994Z,11.53
2019-03-30T23:00:05.688Z,11.00
2019-03-30T23:02:33.764Z,10.63
2019-03-30T23:05:02.200Z,10.20
2019-03-30T23:07:30.639Z,13.53
2019-03-30T23:09:58.731Z,10.58
2019-03-30T23:12:27.233Z,14.40
2019-03-30T23:14:55.320Z,8.20
2019-03-30T23:17:23.717Z,8.07
2019-03-30T23:19:52.196Z,8.50
2019-03-30T23:22:20.657Z,7.10
2019-03-30T23:24:49.105Z,6.97
2019-03-30T23:27:17.492Z,8.60
2019-03-30T23:29:45.924Z,6.00
2019-03-30T23:32:14.308Z,8.97
2019-03-30T23:34:42.388Z,5.58
2019-03-30T23:37:10.460Z,5.87
2019-03-30T23:39:38.568Z,6.07
2019-03-30T23:42:07.006Z,8.80
2019-03-30T23:44:35.429Z,6.63
2019-03-30T23:47:03.899Z,6.10
2019-03-30T23:49:32.392Z,6.57
2019-03-30T23:52:00.543Z,5.73
2019-03-30T23:54:28.626Z,8.80
2019-03-30T23:56:57.079Z,8.20
2019-03-30T23:59:25.524Z,9.27
